Time;durP1;ratioP1;P1;durP2;ratioP2;P2;SDS_P1;SDS_P2;PMS_P1;PMS_P2;Temp;Humidity;BMP_temperature;BMP_pressure;BME280_temperature;BME280_humidity;BME280_pressure;Samples;Min_cycle;Max_cycle;Signal;HPM_P1;HPM_P2
2023/07/25 00:01:01;;;;;;;;;;;;;;;19.18;54.83;99354.89;104862;1290;61968;-86
2023/07/25 00:04:26;;;;;;;;;;;;;;;19.13;54.88;99353.81;104773;1291;75259;-86
2023/07/25 00:07:15;;;;;;;;;;;;;;;19.13;54.87;99352.09;104925;1290;67205;-85
2023/07/25 00:10:02;;;;;;;;;;;;;;;19.15;55.09;99355.98;105407;1291;71186;-85
2023/07/25 00:13:28;;;;;;;;;;;;;;;19.13;55.10;99357.50;105048;1291;62077;-86
2023/07/25 00:16:54;;;;;;;;;;;;;;;19.10;55.19;99344.42;105300;1296;63871;-85
2023/07/25 00:20:02;;;;;;;;;;;;;;;19.08;55.23;99348.77;105281;1290;73968;-86
2023/07/25 00:23:28;;;;;;;;;;;;;;;19.07;55.26;99349.15;104992;1294;67380;-86
2023/07/25 00:26:53;;;;;;;;;;;;;;;19.07;55.51;99347.81;104852;1296;71226;-86
2023/07/25 00:30:20;;;;;;;;;;;;;;;19.04;55.56;99343.79;104990;1294;60393;-86
2023/07/25 00:33:45;;;;;;;;;;;;;;;19.02;55.69;99345.21;104950;1294;60068;-86
2023/07/25 00:37:11;;;;;;;;;;;;;;;19.02;55.63;99332.96;104792;1294;76775;-86
2023/07/25 00:40:02;;;;;;;;;;;;;;;19.02;55.70;99333.82;105103;1293;68722;-86
2023/07/25 00:43:24;;;;;;;;;;;;;;;19.03;55.66;99343.54;104787;1296;71201;-86
2023/07/25 00:46:50;;;;;;;;;;;;;;;19.03;55.70;99350.20;104734;1297;62146;-86
2023/07/25 00:50:16;;;;;;;;;;;;;;;19.00;55.82;99362.94;104605;1296;60989;-86
2023/07/25 00:53:42;;;;;;;;;;;;;;;18.95;55.95;99370.81;104830;1296;74386;-87
2023/07/25 00:57:08;;;;;;;;;;;;;;;18.92;56.00;99375.41;104959;1294;68337;-86
2023/07/25 01:00:34;;;;;;;;;;;;;;;18.88;56.20;99378.33;104976;1293;74986;-86
2023/07/25 01:04:00;;;;;;;;;;;;;;;18.83;56.23;99376.90;104975;1292;62266;-85
2023/07/25 01:07:26;;;;;;;;;;;;;;;18.78;56.41;99375.84;105046;1293;62139;-85
2023/07/25 01:10:17;;;;;;;;;;;;;;;18.76;56.47;99380.04;105040;1294;79117;-85
2023/07/25 01:13:24;;;;;;;;;;;;;;;18.73;56.65;99381.09;104908;1294;67908;-86
2023/07/25 01:16:50;;;;;;;;;;;;;;;18.70;56.59;99381.17;105006;1293;74049;-85
2023/07/25 01:20:00;;;;;;;;;;;;;;;18.71;56.88;99384.27;105155;1291;62007;-86
2023/07/25 01:23:26;;;;;;;;;;;;;;;18.70;56.99;99388.99;105033;1291;60170;-86
2023/07/25 01:26:52;;;;;;;;;;;;;;;18.73;56.82;99391.75;105068;1291;74114;-86
2023/07/25 01:29:58;;;;;;;;;;;;;;;18.73;57.14;99396.67;105338;1291;68444;-86
2023/07/25 01:33:04;;;;;;;;;;;;;;;18.74;57.34;99394.64;101276;1291;5159614;-87
2023/07/25 01:36:30;;;;;;;;;;;;;;;18.73;57.23;99396.46;105127;1295;62106;-88
2023/07/25 01:39:56;;;;;;;;;;;;;;;18.70;57.29;99405.45;105226;1291;62119;-87
2023/07/25 01:43:22;;;;;;;;;;;;;;;18.68;57.35;99410.46;105209;1291;74229;-88
2023/07/25 01:46:48;;;;;;;;;;;;;;;18.65;57.58;99408.05;105108;1291;68138;-87
2023/07/25 01:49:54;;;;;;;;;;;;;;;18.62;57.62;99403.00;105233;1290;71271;-88
2023/07/25 01:53:03;;;;;;;;;;;;;;;18.61;57.58;99404.33;105138;1291;61190;-85
2023/07/25 01:56:29;;;;;;;;;;;;;;;18.63;57.82;99413.96;105146;1291;62921;-86
2023/07/25 01:59:55;;;;;;;;;;;;;;;18.63;57.95;99418.80;105087;1291;75916;-86
2023/07/25 02:03:21;;;;;;;;;;;;;;;18.63;57.98;99420.44;104909;1291;67526;-85
2023/07/25 02:06:47;;;;;;;;;;;;;;;18.60;57.90;99425.30;105051;1291;71086;-85
2023/07/25 02:10:01;;;;;;;;;;;;;;;18.56;58.29;99428.05;105065;1291;60371;-85
2023/07/25 02:13:08;;;;;;;;;;;;;;;18.46;58.20;99434.26;105127;1293;61975;-85
2023/07/25 02:16:18;;;;;;;;;;;;;;;18.41;58.35;99432.71;105008;1291;75308;-86
2023/07/25 02:19:44;;;;;;;;;;;;;;;18.39;58.31;99431.94;105085;1295;67485;-86
2023/07/25 02:22:54;;;;;;;;;;;;;;;18.40;58.45;99428.07;104944;1291;72089;-85
2023/07/25 02:26:20;;;;;;;;;;;;;;;18.39;58.56;99432.98;104907;1291;62050;-85
2023/07/25 02:29:09;;;;;;;;;;;;;;;18.37;58.55;99436.23;105032;1292;60517;-85
2023/07/25 02:32:16;;;;;;;;;;;;;;;18.36;58.67;99439.47;104844;1291;77004;-85
2023/07/25 02:35:23;;;;;;;;;;;;;;;18.32;58.55;99435.39;105198;1291;68457;-86
2023/07/25 02:38:31;;;;;;;;;;;;;;;18.30;58.76;99443.56;105131;1292;71314;-86
2023/07/25 02:41:58;;;;;;;;;;;;;;;18.30;58.65;99443.06;105208;1290;61931;-86
2023/07/25 02:45:24;;;;;;;;;;;;;;;18.29;58.90;99442.73;105214;1291;61943;-86
2023/07/25 02:48:50;;;;;;;;;;;;;;;18.29;59.00;99449.34;105238;1290;75401;-86
2023/07/25 02:52:16;;;;;;;;;;;;;;;18.27;58.94;99453.15;105228;1291;67320;-85
2023/07/25 02:55:42;;;;;;;;;;;;;;;18.24;59.00;99462.64;105133;1291;71395;-86
2023/07/25 02:59:08;;;;;;;;;;;;;;;18.17;58.97;99468.48;105228;1291;61929;-85
2023/07/25 03:02:22;;;;;;;;;;;;;;;18.16;59.12;99464.73;105378;1291;60069;-86
2023/07/25 03:05:48;;;;;;;;;;;;;;;18.15;58.98;99468.98;105347;1291;74464;-85
2023/07/25 03:08:55;;;;;;;;;;;;;;;18.11;59.18;99473.08;105292;1291;67389;-85
2023/07/25 03:12:05;;;;;;;;;;;;;;;18.07;59.36;99478.21;105190;1291;71616;-86
2023/07/25 03:15:14;;;;;;;;;;;;;;;18.08;59.36;99478.70;105174;1295;60138;-86
2023/07/25 03:18:40;;;;;;;;;;;;;;;18.10;59.38;99480.81;105194;1291;62592;-86
2023/07/25 03:22:06;;;;;;;;;;;;;;;18.07;59.40;99477.73;105242;1291;74151;-86
2023/07/25 03:25:32;;;;;;;;;;;;;;;18.08;59.63;99475.92;105098;1291;68550;-86
2023/07/25 03:28:58;;;;;;;;;;;;;;;18.07;59.83;99472.15;105095;1291;71152;-86
2023/07/25 03:32:25;;;;;;;;;;;;;;;18.02;59.82;99482.91;104996;1291;62038;-86
2023/07/25 03:35:51;;;;;;;;;;;;;;;17.98;59.89;99487.89;105143;1291;62275;-86
2023/07/25 03:39:17;;;;;;;;;;;;;;;18.01;59.97;99490.47;105111;1291;74746;-87
2023/07/25 03:42:43;;;;;;;;;;;;;;;18.03;59.98;99483.93;105026;1293;67523;-86
2023/07/25 03:46:09;;;;;;;;;;;;;;;18.03;59.88;99487.93;105088;1291;72194;-85
2023/07/25 03:49:36;;;;;;;;;;;;;;;18.04;60.16;99485.41;104995;1291;62028;-86
2023/07/25 03:53:02;;;;;;;;;;;;;;;18.07;60.22;99484.17;105110;1291;62024;-86
2023/07/25 03:56:28;;;;;;;;;;;;;;;18.13;60.26;99486.06;105050;1290;74219;-86
2023/07/25 03:59:54;;;;;;;;;;;;;;;18.20;60.38;99488.48;105105;1291;70497;-85
2023/07/25 04:03:20;;;;;;;;;;;;;;;18.23;60.20;99484.64;105211;1291;72451;-85
2023/07/25 04:06:46;;;;;;;;;;;;;;;18.29;60.31;99485.49;105124;1291;62915;-85
2023/07/25 04:09:56;;;;;;;;;;;;;;;18.34;60.18;99483.73;105176;1291;62605;-85
2023/07/25 04:13:01;;;;;;;;;;;;;;;18.36;60.30;99485.89;105214;1291;74547;-86
2023/07/25 04:16:28;;;;;;;;;;;;;;;18.37;60.09;99473.27;105160;1291;71044;-86
2023/07/25 04:19:35;;;;;;;;;;;;;;;18.36;60.35;99482.40;105250;1290;72135;-86
2023/07/25 04:23:01;;;;;;;;;;;;;;;18.36;60.17;99491.67;105042;1295;61968;-86
2023/07/25 04:26:27;;;;;;;;;;;;;;;18.33;60.32;99494.63;105275;1290;60651;-86
2023/07/25 04:29:53;;;;;;;;;;;;;;;18.35;60.48;99493.44;105200;1291;73188;-86
2023/07/25 04:33:19;;;;;;;;;;;;;;;18.38;60.37;99500.05;105344;1291;67353;-86
2023/07/25 04:36:45;;;;;;;;;;;;;;;18.38;60.38;99508.45;105169;1290;72318;-85
2023/07/25 04:39:54;;;;;;;;;;;;;;;18.36;60.35;99508.02;105399;1291;61939;-85
2023/07/25 04:43:08;;;;;;;;;;;;;;;18.37;60.43;99507.13;105280;1290;61972;-85
2023/07/25 04:46:03;;;;;;;;;;;;;;;18.39;60.50;99510.13;105196;1291;74205;-85
2023/07/25 04:49:13;;;;;;;;;;;;;;;18.42;60.57;99516.04;105260;1290;68329;-85
2023/07/25 04:52:20;;;;;;;;;;;;;;;18.44;60.59;99520.92;105256;1290;73484;-85
2023/07/25 04:55:46;;;;;;;;;;;;;;;18.47;60.54;99523.53;105224;1295;62039;-85
2023/07/25 04:59:12;;;;;;;;;;;;;;;18.50;60.49;99525.95;105171;1290;62109;-85
2023/07/25 05:02:38;;;;;;;;;;;;;;;18.52;60.57;99529.33;105218;1290;77130;-84
2023/07/25 05:06:04;;;;;;;;;;;;;;;18.50;60.38;99531.16;105141;1291;67185;-85
2023/07/25 05:09:30;;;;;;;;;;;;;;;18.52;60.46;99530.35;105166;1290;74340;-85
2023/07/25 05:12:56;;;;;;;;;;;;;;;18.55;60.49;99537.54;105207;1291;61961;-85
2023/07/25 05:16:03;;;;;;;;;;;;;;;18.57;60.37;99532.14;105227;1291;59367;-84
2023/07/25 05:19:29;;;;;;;;;;;;;;;18.59;60.44;99527.64;104575;1297;76900;-85
2023/07/25 05:22:55;;;;;;;;;;;;;;;18.58;60.58;99532.10;104569;1299;70178;-85
2023/07/25 05:26:21;;;;;;;;;;;;;;;18.60;60.61;99537.90;104587;1297;72104;-85
2023/07/25 05:29:49;;;;;;;;;;;;;;;18.65;60.63;99545.62;104151;1302;62113;-85
2023/07/25 05:33:15;;;;;;;;;;;;;;;18.69;60.52;99548.99;104419;1302;62480;-86
2023/07/25 05:36:41;;;;;;;;;;;;;;;18.69;60.58;99553.17;104207;1303;76890;-85
2023/07/25 05:40:07;;;;;;;;;;;;;;;18.72;60.52;99554.70;104190;1302;70120;-85
2023/07/25 05:43:34;;;;;;;;;;;;;;;18.80;60.67;99543.18;103783;1309;72250;-85
2023/07/25 05:46:40;;;;;;;;;;;;;;;18.88;60.68;99542.98;103535;1310;61986;-85
2023/07/25 05:49:50;;;;;;;;;;;;;;;18.98;60.65;99546.13;103688;1312;60780;-85
2023/07/25 05:53:00;;;;;;;;;;;;;;;19.09;60.63;99543.45;103529;1310;74805;-85
2023/07/25 05:56:08;;;;;;;;;;;;;;;19.30;60.76;99544.11;103678;1303;68012;-85
2023/07/25 05:59:16;;;;;;;;;;;;;;;19.53;60.65;99537.98;104206;1302;71743;-85
2023/07/25 06:02:30;;;;;;;;;;;;;;;19.65;60.26;99534.49;104443;1298;59931;-85
2023/07/25 06:05:44;;;;;;;;;;;;;;;19.81;60.45;99540.54;104396;1298;61877;-85
2023/07/25 06:09:10;;;;;;;;;;;;;;;20.15;60.51;99545.09;104409;1299;74972;-84
2023/07/25 06:12:36;;;;;;;;;;;;;;;20.31;60.25;99554.33;104393;1299;66428;-86
2023/07/25 06:15:44;;;;;;;;;;;;;;;20.29;60.00;99568.50;104838;1294;70314;-85
2023/07/25 06:18:35;;;;;;;;;;;;;;;20.26;60.07;99587.17;104865;1294;60738;-85
2023/07/25 06:21:57;;;;;;;;;;;;;;;20.14;59.97;99599.19;104747;1293;62105;-85
2023/07/25 06:25:23;;;;;;;;;;;;;;;19.99;60.08;99594.33;104858;1293;74202;-85
2023/07/25 06:28:51;;;;;;;;;;;;;;;19.96;60.16;99588.96;104926;1294;67204;-85
2023/07/25 06:32:16;;;;;;;;;;;;;;;19.96;60.14;99607.48;105198;1291;75602;-85
2023/07/25 06:35:42;;;;;;;;;;;;;;;19.88;60.06;99600.54;105123;1290;61879;-85
2023/07/25 06:39:08;;;;;;;;;;;;;;;19.77;60.06;99592.73;105169;1290;60402;-85
2023/07/25 06:42:15;;;;;;;;;;;;;;;19.67;60.17;99586.97;105180;1291;74023;-85
2023/07/25 06:45:25;;;;;;;;;;;;;;;19.61;60.26;99591.83;105270;1291;70010;-85
2023/07/25 06:48:50;;;;;;;;;;;;;;;19.55;60.22;99605.14;105193;1291;71569;-86
2023/07/25 06:52:17;;;;;;;;;;;;;;;19.48;60.13;99611.35;105323;1291;62099;-85
2023/07/25 06:55:43;;;;;;;;;;;;;;;19.44;60.32;99614.64;105192;1291;61925;-85
2023/07/25 06:59:09;;;;;;;;;;;;;;;19.37;60.20;99618.27;105356;1295;75754;-86
2023/07/25 07:02:14;;;;;;;;;;;;;;;19.33;60.23;99617.99;105181;1291;67310;-85
2023/07/25 07:05:00;;;;;;;;;;;;;;;19.30;60.25;99613.84;105133;1291;73065;-85
2023/07/25 07:07:47;;;;;;;;;;;;;;;19.27;60.28;99614.40;101325;1291;61597;-85
2023/07/25 07:10:34;;;;;;;;;;;;;;;19.27;60.27;99616.88;105325;1295;75691;-84
2023/07/25 07:13:41;;;;;;;;;;;;;;;19.33;60.18;99620.61;105186;1291;67195;-84
2023/07/25 07:16:28;;;;;;;;;;;;;;;19.37;60.14;99622.78;105250;1291;71416;-85
2023/07/25 07:19:26;;;;;;;;;;;;;;;19.34;60.18;99626.67;105194;1295;62656;-85
2023/07/25 07:22:32;;;;;;;;;;;;;;;19.30;60.12;99625.39;105335;1291;62041;-86
2023/07/25 07:25:58;;;;;;;;;;;;;;;19.22;59.99;99622.48;105373;1290;74504;-86
2023/07/25 07:29:24;;;;;;;;;;;;;;;19.16;60.15;99623.34;105312;1291;67533;-86
2023/07/25 07:32:50;;;;;;;;;;;;;;;19.19;60.31;99621.58;105216;1291;72095;-86
2023/07/25 07:36:16;;;;;;;;;;;;;;;19.21;60.26;99621.66;105346;1291;62119;-86
2023/07/25 07:39:42;;;;;;;;;;;;;;;19.21;60.27;99621.50;105330;1290;61971;-86
2023/07/25 07:43:09;;;;;;;;;;;;;;;19.20;60.35;99626.44;105305;1291;75091;-86
2023/07/25 07:46:35;;;;;;;;;;;;;;;19.21;60.34;99622.14;105321;1291;70033;-86
2023/07/25 07:50:00;;;;;;;;;;;;;;;19.22;60.28;99625.57;105307;1291;71390;-86
2023/07/25 07:52:55;;;;;;;;;;;;;;;19.22;60.45;99629.81;105242;1291;59927;-85
2023/07/25 07:55:42;;;;;;;;;;;;;;;19.21;60.38;99628.95;105288;1290;61421;-86
2023/07/25 07:58:30;;;;;;;;;;;;;;;19.22;60.54;99621.40;105130;1291;74278;-86
2023/07/25 08:01:41;;;;;;;;;;;;;;;19.25;60.63;99613.65;105157;1291;70048;-86
2023/07/25 08:04:42;;;;;;;;;;;;;;;19.50;60.55;99610.38;105170;1291;72968;-86
2023/07/25 08:07:57;;;;;;;;;;;;;;;21.38;61.50;99608.19;104964;1291;62053;-86
2023/07/25 08:11:23;;;;;;;;;;;;;;;23.06;58.75;99609.19;105249;1291;59724;-86
2023/07/25 08:14:30;;;;;;;;;;;;;;;22.55;58.96;99600.28;105198;1290;76778;-86
2023/07/25 08:17:51;;;;;;;;;;;;;;;22.14;59.11;99593.62;105117;1291;66185;-86
2023/07/25 08:21:17;;;;;;;;;;;;;;;21.81;59.23;99590.80;105057;1290;73029;-87
2023/07/25 08:24:24;;;;;;;;;;;;;;;21.57;59.29;99587.39;105303;1291;59867;-87
2023/07/25 08:27:34;;;;;;;;;;;;;;;21.31;59.31;99582.96;105196;1291;64684;-86
2023/07/25 08:30:41;;;;;;;;;;;;;;;21.06;59.30;99579.42;105217;1290;75356;-87
2023/07/25 08:33:48;;;;;;;;;;;;;;;20.88;59.39;99584.65;105147;1291;67559;-86
2023/07/25 08:37:14;;;;;;;;;;;;;;;20.77;59.50;99581.59;105148;1291;72771;-86
2023/07/25 08:40:38;;;;;;;;;;;;;;;20.75;59.45;99579.70;105209;1290;61988;-86
2023/07/25 08:43:45;;;;;;;;;;;;;;;23.05;60.22;99582.95;105191;1291;60223;-87
2023/07/25 08:46:52;;;;;;;;;;;;;;;26.89;58.36;99583.55;105692;1291;75345;-88
2023/07/25 08:50:02;;;;;;;;;;;;;;;29.76;56.95;99589.51;105192;1293;70503;-87
2023/07/25 08:53:10;;;;;;;;;;;;;;;32.00;56.33;99589.50;104889;1297;70436;-87
2023/07/25 08:55:59;;;;;;;;;;;;;;;33.39;55.13;99595.46;104940;1293;62201;-87
2023/07/25 08:59:06;;;;;;;;;;;;;;;32.64;54.62;99610.81;104996;1293;60243;-88
2023/07/25 09:02:32;;;;;;;;;;;;;;;31.19;55.10;99622.64;105146;1294;74789;-87
2023/07/25 09:05:58;;;;;;;;;;;;;;;29.60;55.18;99637.21;105101;1294;67992;-87
2023/07/25 09:09:24;;;;;;;;;;;;;;;28.20;54.91;99637.52;105013;1293;71173;-86
2023/07/25 09:12:50;;;;;;;;;;;;;;;27.20;54.76;99637.25;105167;1294;60196;-86
2023/07/25 09:16:16;;;;;;;;;;;;;;;26.46;54.73;99651.02;105884;1293;59861;-87
2023/07/25 09:19:23;;;;;;;;;;;;;;;25.88;54.42;99660.70;104986;1293;76281;-85
2023/07/25 09:22:28;;;;;;;;;;;;;;;25.39;54.01;99663.34;104991;1294;68541;-85
2023/07/25 09:25:15;;;;;;;;;;;;;;;24.93;53.84;99663.91;106015;1290;71445;-88
2023/07/25 09:28:02;;;;;;;;;;;;;;;24.51;53.68;99664.57;105501;1291;60028;-88
2023/07/25 09:30:48;;;;;;;;;;;;;;;24.09;53.48;99664.71;105227;1296;62811;-84
2023/07/25 09:33:36;;;;;;;;;;;;;;;23.71;53.46;99662.96;105241;1291;74268;-87
2023/07/25 09:36:38;;;;;;;;;;;;;;;23.43;53.48;99664.23;105262;1295;68854;-86
2023/07/25 09:39:44;;;;;;;;;;;;;;;23.29;53.26;99660.73;106023;1291;72424;-88
2023/07/25 09:43:10;;;;;;;;;;;;;;;23.35;53.41;99657.00;106028;1291;60092;-87
2023/07/25 09:46:17;;;;;;;;;;;;;;;23.48;53.04;99653.61;105311;1291;62052;-85
2023/07/25 09:49:24;;;;;;;;;;;;;;;23.51;52.90;99645.16;105258;1291;74892;-87
2023/07/25 09:52:37;;;;;;;;;;;;;;;23.45;52.80;99634.37;105268;1293;67372;-86
2023/07/25 09:55:47;;;;;;;;;;;;;;;23.42;52.84;99629.52;105181;1291;75999;-87
2023/07/25 09:58:54;;;;;;;;;;;;;;;23.41;52.76;99619.38;105299;1291;62241;-88
2023/07/25 10:02:04;;;;;;;;;;;;;;;23.43;52.83;99617.64;105237;1291;60250;-87
2023/07/25 10:05:11;;;;;;;;;;;;;;;23.43;52.48;99617.64;105176;1291;74317;-85
2023/07/25 10:07:59;;;;;;;;;;;;;;;23.44;52.41;99616.79;104993;1291;68754;-85
2023/07/25 10:10:45;;;;;;;;;;;;;;;23.48;52.25;99608.59;105146;1291;71724;-86
2023/07/25 10:14:11;;;;;;;;;;;;;;;23.49;52.23;99603.56;105125;1292;60950;-88
2023/07/25 10:17:18;;;;;;;;;;;;;;;23.55;52.34;99607.83;104676;1291;60199;-87
2023/07/25 10:20:27;;;;;;;;;;;;;;;23.51;52.12;99609.36;104795;1291;74055;-86
2023/07/25 10:25:53;;;;;;;;;;;;;;;23.46;51.95;99604.90;105565;1288;71665;-86
2023/07/25 10:28:40;;;;;;;;;;;;;;;23.48;51.90;99600.19;105452;1289;60571;-86
2023/07/25 10:31:30;;;;;;;;;;;;;;;23.43;52.06;99600.72;105420;1288;61996;-86
2023/07/25 10:34:16;;;;;;;;;;;;;;;23.35;51.94;99601.44;105318;1288;74827;-86
2023/07/25 10:37:41;;;;;;;;;;;;;;;23.23;51.86;99608.30;105394;1288;67442;-86
2023/07/25 10:40:48;;;;;;;;;;;;;;;23.09;51.91;99622.48;104859;1294;73244;-86
2023/07/25 10:44:06;;;;;;;;;;;;;;;23.06;51.96;99630.26;104961;1294;60316;-86
2023/07/25 10:47:00;;;;;;;;;;;;;;;23.06;51.83;99637.48;104329;1302;61929;-87
2023/07/25 10:50:10;;;;;;;;;;;;;;;23.10;51.71;99625.88;104250;1302;73372;-86
2023/07/25 10:53:20;;;;;;;;;;;;;;;23.23;51.60;99614.61;104227;1303;68590;-87
2023/07/25 10:56:43;;;;;;;;;;;;;;;23.34;51.40;99621.59;104279;1303;71275;-87
2023/07/25 11:00:21;;;;;;;;;;;;;;;23.36;51.23;99619.52;104286;1303;61936;-87
2023/07/25 11:03:29;;;;;;;;;;;;;;;23.39;51.24;99619.26;104299;1303;61946;-86
2023/07/25 11:06:36;;;;;;;;;;;;;;;23.37;51.07;99619.77;104315;1303;74315;-85
2023/07/25 11:09:43;;;;;;;;;;;;;;;23.22;51.03;99625.27;104260;1303;68404;-86
2023/07/25 11:12:51;;;;;;;;;;;;;;;23.04;51.12;99629.19;104627;1297;71113;-86
2023/07/25 11:15:57;;;;;;;;;;;;;;;22.90;51.14;99632.14;104608;1300;62171;-86
2023/07/25 11:18:50;;;;;;;;;;;;;;;22.90;51.21;99639.85;104678;1297;60192;-86
2023/07/25 11:21:42;;;;;;;;;;;;;;;22.96;51.22;99642.70;104682;1300;74242;-86
2023/07/25 11:24:28;;;;;;;;;;;;;;;23.05;51.12;99641.23;105342;1291;68413;-86
2023/07/25 11:27:22;;;;;;;;;;;;;;;23.10;50.96;99642.56;105262;1291;70367;-86
2023/07/25 11:30:35;;;;;;;;;;;;;;;23.14;50.69;99650.77;105368;1290;62092;-87
2023/07/25 11:33:45;;;;;;;;;;;;;;;23.07;50.69;99651.05;104718;1294;60832;-87
2023/07/25 11:37:00;;;;;;;;;;;;;;;22.95;50.81;99649.11;104581;1294;76934;-88
2023/07/25 11:39:52;;;;;;;;;;;;;;;22.81;50.80;99646.27;104354;1297;68563;-89
2023/07/25 11:47:57;;;;;;;;;;;;;;;22.58;50.85;99636.39;105386;1289;61943;-88
2023/07/25 11:50:51;;;;;;;;;;;;;;;22.69;50.92;99633.20;105286;1291;75325;-88
2023/07/25 11:54:17;;;;;;;;;;;;;;;22.84;50.70;99624.77;104947;1295;71083;-88
2023/07/25 11:57:44;;;;;;;;;;;;;;;22.95;50.68;99621.89;104759;1296;72713;-88
2023/07/25 12:01:10;;;;;;;;;;;;;;;23.09;50.51;99623.34;104735;1297;61978;-88
2023/07/25 12:04:36;;;;;;;;;;;;;;;23.17;50.45;99619.89;104724;1296;60800;-87
2023/07/25 12:08:08;;;;;;;;;;;;;;;23.26;50.51;99611.38;104779;1297;73994;-88
2023/07/25 12:11:35;;;;;;;;;;;;;;;23.39;50.48;99607.23;104702;1296;67129;-88
2023/07/25 12:15:01;;;;;;;;;;;;;;;23.42;50.20;99603.95;104685;1296;71300;-87
2023/07/25 12:18:34;;;;;;;;;;;;;;;23.38;50.11;99607.20;104259;1302;60387;-87
2023/07/25 12:22:00;;;;;;;;;;;;;;;23.27;50.00;99613.05;103771;1308;63445;-87
2023/07/25 12:25:26;;;;;;;;;;;;;;;23.21;50.07;99605.27;103758;1307;76927;-87
2023/07/25 12:28:58;;;;;;;;;;;;;;;23.33;50.08;99598.09;103822;1308;67354;-87
2023/07/25 12:32:25;;;;;;;;;;;;;;;23.53;50.21;99600.44;104369;1302;72123;-87
2023/07/25 12:35:51;;;;;;;;;;;;;;;23.74;49.98;99593.90;104740;1302;60106;-87
2023/07/25 12:39:17;;;;;;;;;;;;;;;23.78;49.71;99586.00;104179;1302;60289;-85
2023/07/25 12:42:44;;;;;;;;;;;;;;;23.81;49.69;99584.98;104229;1306;74286;-87
2023/07/25 12:45:51;;;;;;;;;;;;;;;23.90;49.82;99580.56;104253;1303;67418;-86
2023/07/25 12:49:17;;;;;;;;;;;;;;;23.93;49.55;99578.27;104448;1299;72168;-87
2023/07/25 12:52:43;;;;;;;;;;;;;;;23.96;49.41;99581.39;104458;1299;61946;-87
2023/07/25 12:56:09;;;;;;;;;;;;;;;24.00;49.38;99578.89;104442;1297;60379;-86
2023/07/25 12:59:36;;;;;;;;;;;;;;;24.06;49.41;99582.39;105054;1292;75851;-87
2023/07/25 13:03:02;;;;;;;;;;;;;;;24.19;49.22;99590.77;105053;1291;67333;-86
2023/07/25 13:06:10;;;;;;;;;;;;;;;24.26;48.98;99590.34;104852;1295;72667;-87
2023/07/25 13:09:17;;;;;;;;;;;;;;;24.28;48.99;99588.00;105211;1294;62026;-87
2023/07/25 13:12:43;;;;;;;;;;;;;;;24.28;48.90;99595.07;104875;1294;60483;-87
2023/07/25 13:16:10;;;;;;;;;;;;;;;24.23;48.90;99587.43;104897;1296;76043;-87
2023/07/25 13:19:36;;;;;;;;;;;;;;;24.15;48.78;99582.52;104885;1295;67342;-87
2023/07/25 13:23:02;;;;;;;;;;;;;;;24.12;48.80;99587.63;104923;1292;75487;-86
2023/07/25 13:26:29;;;;;;;;;;;;;;;24.00;48.69;99589.95;104872;1294;60440;-87
2023/07/25 13:29:54;;;;;;;;;;;;;;;23.90;48.52;99584.89;105149;1294;61999;-86
2023/07/25 13:33:21;;;;;;;;;;;;;;;23.84;48.50;99591.08;104899;1296;77401;-87
2023/07/25 13:36:47;;;;;;;;;;;;;;;23.79;48.41;99586.08;105681;1294;68511;-86
2023/07/25 13:40:13;;;;;;;;;;;;;;;23.81;48.28;99580.92;105838;1291;72654;-88
2023/07/25 13:43:39;;;;;;;;;;;;;;;23.86;48.20;99581.77;104639;1299;60839;-87
2023/07/25 13:47:05;;;;;;;;;;;;;;;23.91;48.11;99574.02;104685;1299;61942;-87
2023/07/25 13:50:31;;;;;;;;;;;;;;;23.99;48.14;99570.36;104717;1298;77234;-87
2023/07/25 13:53:58;;;;;;;;;;;;;;;24.05;48.00;99576.98;104620;1300;68423;-87
2023/07/25 13:57:24;;;;;;;;;;;;;;;24.05;47.88;99579.16;104714;1300;72486;-87
2023/07/25 14:00:50;;;;;;;;;;;;;;;24.08;47.99;99584.98;104610;1297;61985;-87
2023/07/25 14:04:17;;;;;;;;;;;;;;;24.11;47.86;99580.52;104565;1300;62087;-86
2023/07/25 14:07:43;;;;;;;;;;;;;;;24.18;47.91;99569.54;104542;1298;76170;-86
2023/07/25 14:11:09;;;;;;;;;;;;;;;24.22;47.83;99572.14;104617;1300;69461;-86
2023/07/25 14:14:35;;;;;;;;;;;;;;;24.07;47.52;99573.52;104544;1299;75539;-88
2023/07/25 14:18:01;;;;;;;;;;;;;;;23.92;47.52;99571.33;104642;1300;62037;-88
2023/07/25 14:21:27;;;;;;;;;;;;;;;23.80;47.65;99565.72;104724;1294;61850;-87
2023/07/25 14:24:53;;;;;;;;;;;;;;;23.67;47.64;99565.09;105016;1296;74667;-87
2023/07/25 14:28:20;;;;;;;;;;;;;;;23.44;47.42;99565.13;104743;1297;67205;-87
2023/07/25 14:31:46;;;;;;;;;;;;;;;23.25;47.54;99569.64;104719;1297;72448;-87
2023/07/25 14:34:52;;;;;;;;;;;;;;;23.09;47.53;99580.28;104976;1296;62200;-85
2023/07/25 14:37:59;;;;;;;;;;;;;;;22.96;47.56;99575.75;104690;1297;60039;-85
2023/07/25 14:40:50;;;;;;;;;;;;;;;22.85;47.57;99577.92;104647;1296;74220;-85
2023/07/25 14:43:36;;;;;;;;;;;;;;;22.77;47.56;99576.44;104628;1297;69832;-85
2023/07/25 14:46:32;;;;;;;;;;;;;;;22.71;47.62;99571.30;104577;1300;73029;-85
2023/07/25 14:49:19;;;;;;;;;;;;;;;22.73;47.53;99573.27;105631;1295;59999;-86
2023/07/25 14:52:11;;;;;;;;;;;;;;;22.79;47.66;99568.41;104954;1298;61788;-85
2023/07/25 14:54:58;;;;;;;;;;;;;;;22.85;47.65;99570.71;104704;1295;74230;-85
2023/07/25 14:57:44;;;;;;;;;;;;;;;22.91;47.49;99576.19;104893;1291;66281;-85
2023/07/25 15:00:30;;;;;;;;;;;;;;;22.93;47.39;99573.38;105222;1293;71459;-85
2023/07/25 15:03:16;;;;;;;;;;;;;;;22.93;47.38;99575.67;105075;1296;61194;-85
2023/07/25 15:06:03;;;;;;;;;;;;;;;22.92;47.34;99576.42;105124;1291;61371;-85
2023/07/25 15:08:50;;;;;;;;;;;;;;;22.96;47.40;99576.95;105120;1291;76090;-84
2023/07/25 15:11:36;;;;;;;;;;;;;;;23.02;47.40;99578.73;105088;1291;67205;-84
2023/07/25 15:14:22;;;;;;;;;;;;;;;23.08;47.29;99572.48;105186;1291;71202;-84
2023/07/25 15:17:17;;;;;;;;;;;;;;;23.13;47.30;99563.98;105125;1293;60221;-84
2023/07/25 15:20:09;;;;;;;;;;;;;;;23.18;47.33;99556.35;105148;1292;62152;-84
2023/07/25 15:22:55;;;;;;;;;;;;;;;23.21;47.47;99555.39;105954;1293;75181;-85
2023/07/25 15:25:41;;;;;;;;;;;;;;;23.20;47.24;99555.62;105206;1296;67655;-85
2023/07/25 15:28:28;;;;;;;;;;;;;;;23.16;47.18;99560.02;104974;1292;71320;-84
2023/07/25 15:31:15;;;;;;;;;;;;;;;23.13;47.26;99560.93;104833;1296;61997;-85
2023/07/25 15:34:01;;;;;;;;;;;;;;;23.10;47.14;99564.50;104521;1295;62074;-86
2023/07/25 15:36:47;;;;;;;;;;;;;;;23.09;47.14;99558.66;104652;1293;74084;-87
2023/07/25 15:39:34;;;;;;;;;;;;;;;23.08;47.15;99554.70;104498;1292;67257;-87
2023/07/25 15:42:20;;;;;;;;;;;;;;;23.08;47.10;99553.11;104528;1297;71351;-86
2023/07/25 15:45:06;;;;;;;;;;;;;;;23.08;46.94;99551.02;104504;1292;62072;-87
2023/07/25 15:48:15;;;;;;;;;;;;;;;23.08;47.11;99551.55;105093;1295;62076;-87
2023/07/25 15:51:06;;;;;;;;;;;;;;;23.09;46.93;99547.20;104889;1292;76150;-86
2023/07/25 15:53:53;;;;;;;;;;;;;;;23.07;46.99;99542.11;104503;1296;68378;-85
2023/07/25 15:56:40;;;;;;;;;;;;;;;23.03;46.85;99541.36;104481;1295;71710;-86
2023/07/25 15:59:27;;;;;;;;;;;;;;;23.01;46.82;99546.79;104719;1291;61932;-88
2023/07/25 16:02:15;;;;;;;;;;;;;;;22.98;46.73;99547.29;104853;1292;60329;-87
2023/07/25 16:05:03;;;;;;;;;;;;;;;22.91;46.64;99552.30;104716;1295;78454;-86
2023/07/25 16:07:51;;;;;;;;;;;;;;;22.85;46.76;99552.14;104777;1293;69182;-87
2023/07/25 16:10:37;;;;;;;;;;;;;;;22.81;46.70;99543.71;104591;1291;73459;-85
2023/07/25 16:13:24;;;;;;;;;;;;;;;22.80;46.79;99528.81;104476;1291;61937;-87
2023/07/25 16:16:30;;;;;;;;;;;;;;;22.80;46.62;99519.67;104487;1291;62034;-86
2023/07/25 16:19:16;;;;;;;;;;;;;;;22.84;46.72;99521.23;104356;1291;76958;-86
2023/07/25 16:22:03;;;;;;;;;;;;;;;22.91;46.67;99530.15;104479;1296;66416;-87
2023/07/25 16:24:52;;;;;;;;;;;;;;;22.93;46.44;99525.37;104786;1291;70318;-87
2023/07/25 16:27:40;;;;;;;;;;;;;;;22.96;46.40;99520.41;104822;1291;62937;-86
2023/07/25 16:30:26;;;;;;;;;;;;;;;23.03;46.47;99522.07;104510;1291;60073;-85
2023/07/25 16:33:13;;;;;;;;;;;;;;;23.09;46.51;99521.86;104413;1294;76842;-85